Little Fort, Canada
Current Conditions -  °F | °C
As of 1:00 AM on Sunday 21 Dec 2014 (Local Time) from CYKA Reporting Station
Broken Clouds Broken Clouds  
Wind Chill:   Ceiling: 12000
Heat Index:   Visibility: 40mi
Dew Point:   Wind: 10mph
Humidity: 75%   Direction: 130°SE
Pressure: 29.34"   Gusts: 17mph
Location:  51.43°N, 120.2°W
Report Text: CYKA 210900Z 13009G15KT 40SM FEW025 SCT053 BKN120 BKN220 04/00 A2934 RMK SC1SC3AC2CI1 SLP945
Loading
Personal Weather Stations






























Interactive Weather Map New forecast layout! Learn more

10-Day Weather Forecast

Advertisements
Track Severe Weather on mobile